sensor_id;sensor_type;location;lat;lon;timestamp;temperature;humidity
66610;DHT22;53468;48.276;14.416;2023-11-19T00:57:05;3.70;90.90
66610;DHT22;53468;48.276;14.416;2023-11-19T01:02:53;3.70;90.80
66610;DHT22;53468;48.276;14.416;2023-11-19T02:12:55;3.30;91.20
66610;DHT22;53468;48.276;14.416;2023-11-19T02:19:01;3.40;91.20
66610;DHT22;53468;48.276;14.416;2023-11-19T02:24:58;3.40;91.10
66610;DHT22;53468;48.276;14.416;2023-11-19T04:18:00;3.50;91.10
66610;DHT22;53468;48.276;14.416;2023-11-19T04:29:25;3.60;91.00
66610;DHT22;53468;48.276;14.416;2023-11-19T06:21:42;3.70;91.60
66610;DHT22;53468;48.276;14.416;2023-11-19T06:33:26;3.70;91.50
66610;DHT22;53468;48.276;14.416;2023-11-19T07:15:36;3.80;91.40
66610;DHT22;53468;48.276;14.416;2023-11-19T07:27:50;3.90;91.40
66610;DHT22;53468;48.276;14.416;2023-11-19T08:09:31;4.40;91.00
66610;DHT22;53468;48.276;14.416;2023-11-19T08:15:08;4.40;90.80
66610;DHT22;53468;48.276;14.416;2023-11-19T09:07:55;4.70;91.10
66610;DHT22;53468;48.276;14.416;2023-11-19T09:13:04;4.90;90.80
66610;DHT22;53468;48.276;14.416;2023-11-19T09:18:16;5.00;90.70
66610;DHT22;53468;48.276;14.416;2023-11-19T09:24:04;5.10;90.40
66610;DHT22;53468;48.276;14.416;2023-11-19T09:29:13;5.10;90.40
66610;DHT22;53468;48.276;14.416;2023-11-19T09:34:31;5.10;90.80
66610;DHT22;53468;48.276;14.416;2023-11-19T09:39:56;5.20;90.80
66610;DHT22;53468;48.276;14.416;2023-11-19T09:51:28;5.30;90.60
66610;DHT22;53468;48.276;14.416;2023-11-19T09:56:40;5.40;90.60
66610;DHT22;53468;48.276;14.416;2023-11-19T10:01:49;5.40;90.20
66610;DHT22;53468;48.276;14.416;2023-11-19T10:06:56;5.40;90.20
66610;DHT22;53468;48.276;14.416;2023-11-19T10:12:27;5.50;90.20
66610;DHT22;53468;48.276;14.416;2023-11-19T10:18:08;5.50;90.30
66610;DHT22;53468;48.276;14.416;2023-11-19T10:29:45;5.50;90.60
66610;DHT22;53468;48.276;14.416;2023-11-19T10:35:52;5.40;90.60
66610;DHT22;53468;48.276;14.416;2023-11-19T10:41:30;5.50;90.40
66610;DHT22;53468;48.276;14.416;2023-11-19T10:47:11;5.50;90.50
66610;DHT22;53468;48.276;14.416;2023-11-19T10:53:04;5.40;91.00
66610;DHT22;53468;48.276;14.416;2023-11-19T10:58:20;5.30;90.80
66610;DHT22;53468;48.276;14.416;2023-11-19T11:28:41;5.40;91.10
66610;DHT22;53468;48.276;14.416;2023-11-19T11:34:24;5.50;91.30
66610;DHT22;53468;48.276;14.416;2023-11-19T11:40:18;5.50;91.00
66610;DHT22;53468;48.276;14.416;2023-11-19T11:51:59;5.60;90.80
66610;DHT22;53468;48.276;14.416;2023-11-19T11:57:35;5.80;91.00
66610;DHT22;53468;48.276;14.416;2023-11-19T12:03:10;5.80;90.60
66610;DHT22;53468;48.276;14.416;2023-11-19T12:08:25;5.90;90.70
66610;DHT22;53468;48.276;14.416;2023-11-19T12:13:58;5.90;90.90
66610;DHT22;53468;48.276;14.416;2023-11-19T12:31:31;6.20;91.30
66610;DHT22;53468;48.276;14.416;2023-11-19T12:37:02;6.30;90.20
66610;DHT22;53468;48.276;14.416;2023-11-19T12:42:13;6.40;90.80
66610;DHT22;53468;48.276;14.416;2023-11-19T12:47:42;6.40;90.30
66610;DHT22;53468;48.276;14.416;2023-11-19T12:53:00;6.40;90.20
66610;DHT22;53468;48.276;14.416;2023-11-19T12:59:01;6.40;90.10
66610;DHT22;53468;48.276;14.416;2023-11-19T13:05:00;6.50;90.40
66610;DHT22;53468;48.276;14.416;2023-11-19T13:10:54;6.40;90.30
66610;DHT22;53468;48.276;14.416;2023-11-19T13:16:25;6.40;90.60
66610;DHT22;53468;48.276;14.416;2023-11-19T13:22:24;6.50;91.00
66610;DHT22;53468;48.276;14.416;2023-11-19T13:27:33;6.60;90.60
66610;DHT22;53468;48.276;14.416;2023-11-19T13:32:42;6.60;90.60
66610;DHT22;53468;48.276;14.416;2023-11-19T13:49:49;6.60;91.20
66610;DHT22;53468;48.276;14.416;2023-11-19T13:55:13;6.50;91.60
66610;DHT22;53468;48.276;14.416;2023-11-19T14:00:29;6.60;91.20
66610;DHT22;53468;48.276;14.416;2023-11-19T14:06:27;6.70;91.20
66610;DHT22;53468;48.276;14.416;2023-11-19T14:41:20;6.40;92.20
66610;DHT22;53468;48.276;14.416;2023-11-19T14:46:28;6.50;92.20
66610;DHT22;53468;48.276;14.416;2023-11-19T14:52:09;6.40;92.40
66610;DHT22;53468;48.276;14.416;2023-11-19T14:57:32;6.30;92.60
66610;DHT22;53468;48.276;14.416;2023-11-19T15:02:39;6.40;92.40
66610;DHT22;53468;48.276;14.416;2023-11-19T15:07:45;6.40;92.20
66610;DHT22;53468;48.276;14.416;2023-11-19T15:12:59;6.40;92.00
66610;DHT22;53468;48.276;14.416;2023-11-19T15:18:07;6.30;92.10
66610;DHT22;53468;48.276;14.416;2023-11-19T15:23:13;6.40;92.10
66610;DHT22;53468;48.276;14.416;2023-11-19T15:28:20;6.40;92.10
66610;DHT22;53468;48.276;14.416;2023-11-19T15:33:59;6.30;92.20
66610;DHT22;53468;48.276;14.416;2023-11-19T15:40:01;6.30;92.40
66610;DHT22;53468;48.276;14.416;2023-11-19T15:45:22;6.40;92.50
66610;DHT22;53468;48.276;14.416;2023-11-19T15:57:00;6.40;92.40
66610;DHT22;53468;48.276;14.416;2023-11-19T16:08:36;6.40;92.60
66610;DHT22;53468;48.276;14.416;2023-11-19T16:20:36;6.20;93.30
66610;DHT22;53468;48.276;14.416;2023-11-19T16:25:43;6.20;93.40
66610;DHT22;53468;48.276;14.416;2023-11-19T16:36:29;6.10;93.80
66610;DHT22;53468;48.276;14.416;2023-11-19T16:54:13;6.10;93.60
66610;DHT22;53468;48.276;14.416;2023-11-19T16:59:39;6.10;93.50
66610;DHT22;53468;48.276;14.416;2023-11-19T17:11:37;6.10;93.60
66610;DHT22;53468;48.276;14.416;2023-11-19T17:16:44;6.20;93.60
66610;DHT22;53468;48.276;14.416;2023-11-19T17:21:46;6.10;93.60
66610;DHT22;53468;48.276;14.416;2023-11-19T17:26:52;6.10;93.50
66610;DHT22;53468;48.276;14.416;2023-11-19T17:31:55;6.10;93.70
66610;DHT22;53468;48.276;14.416;2023-11-19T17:36:58;6.10;93.80
66610;DHT22;53468;48.276;14.416;2023-11-19T17:42:02;6.10;93.80
66610;DHT22;53468;48.276;14.416;2023-11-19T17:47:04;6.20;93.90
66610;DHT22;53468;48.276;14.416;2023-11-19T17:52:13;6.20;93.80
66610;DHT22;53468;48.276;14.416;2023-11-19T17:57:23;6.30;93.80
66610;DHT22;53468;48.276;14.416;2023-11-19T18:02:28;6.30;94.00
66610;DHT22;53468;48.276;14.416;2023-11-19T18:07:32;6.30;94.00
66610;DHT22;53468;48.276;14.416;2023-11-19T18:12:36;6.30;93.90
66610;DHT22;53468;48.276;14.416;2023-11-19T18:17:40;6.40;94.00
66610;DHT22;53468;48.276;14.416;2023-11-19T18:22:44;6.40;94.20
66610;DHT22;53468;48.276;14.416;2023-11-19T18:27:49;6.40;94.50
66610;DHT22;53468;48.276;14.416;2023-11-19T18:32:52;6.40;94.40
66610;DHT22;53468;48.276;14.416;2023-11-19T18:37:58;6.50;94.40
66610;DHT22;53468;48.276;14.416;2023-11-19T18:43:23;6.40;94.20
66610;DHT22;53468;48.276;14.416;2023-11-19T18:48:26;6.30;94.30
66610;DHT22;53468;48.276;14.416;2023-11-19T18:53:28;6.30;94.00
66610;DHT22;53468;48.276;14.416;2023-11-19T18:58:33;6.20;94.10
66610;DHT22;53468;48.276;14.416;2023-11-19T19:03:35;6.20;94.50
66610;DHT22;53468;48.276;14.416;2023-11-19T19:08:37;6.30;94.80
66610;DHT22;53468;48.276;14.416;2023-11-19T19:13:42;6.20;94.60
66610;DHT22;53468;48.276;14.416;2023-11-19T19:18:44;6.80;96.50
66610;DHT22;53468;48.276;14.416;2023-11-19T19:23:50;7.20;95.90
66610;DHT22;53468;48.276;14.416;2023-11-19T19:28:54;7.10;94.70
66610;DHT22;53468;48.276;14.416;2023-11-19T19:33:56;6.90;94.80
66610;DHT22;53468;48.276;14.416;2023-11-19T19:38:59;7.00;95.10
66610;DHT22;53468;48.276;14.416;2023-11-19T19:44:05;7.10;95.50
66610;DHT22;53468;48.276;14.416;2023-11-19T19:49:10;7.30;95.00
66610;DHT22;53468;48.276;14.416;2023-11-19T19:54:59;7.40;94.70
66610;DHT22;53468;48.276;14.416;2023-11-19T20:00:14;7.50;94.90
66610;DHT22;53468;48.276;14.416;2023-11-19T20:05:45;7.50;94.60
66610;DHT22;53468;48.276;14.416;2023-11-19T20:10:50;7.40;93.70
66610;DHT22;53468;48.276;14.416;2023-11-19T20:16:23;7.30;94.80
66610;DHT22;53468;48.276;14.416;2023-11-19T20:21:30;7.40;94.90
66610;DHT22;53468;48.276;14.416;2023-11-19T20:26:33;7.30;94.40
66610;DHT22;53468;48.276;14.416;2023-11-19T20:31:41;7.20;94.00
66610;DHT22;53468;48.276;14.416;2023-11-19T20:36:44;7.00;93.70
66610;DHT22;53468;48.276;14.416;2023-11-19T20:42:08;6.90;94.10
66610;DHT22;53468;48.276;14.416;2023-11-19T20:47:16;6.80;94.10
66610;DHT22;53468;48.276;14.416;2023-11-19T20:52:20;6.70;93.60
66610;DHT22;53468;48.276;14.416;2023-11-19T20:57:31;6.60;93.40
66610;DHT22;53468;48.276;14.416;2023-11-19T21:02:42;6.50;94.10
66610;DHT22;53468;48.276;14.416;2023-11-19T21:07:44;6.50;94.20
66610;DHT22;53468;48.276;14.416;2023-11-19T21:12:47;6.60;94.40
66610;DHT22;53468;48.276;14.416;2023-11-19T21:17:54;6.70;94.40
66610;DHT22;53468;48.276;14.416;2023-11-19T21:23:06;6.70;94.30
66610;DHT22;53468;48.276;14.416;2023-11-19T21:28:09;6.70;94.40
66610;DHT22;53468;48.276;14.416;2023-11-19T21:33:13;6.70;94.40
66610;DHT22;53468;48.276;14.416;2023-11-19T21:38:15;6.80;94.50
66610;DHT22;53468;48.276;14.416;2023-11-19T21:43:18;6.80;94.40
66610;DHT22;53468;48.276;14.416;2023-11-19T21:48:22;6.80;94.50
66610;DHT22;53468;48.276;14.416;2023-11-19T21:53:45;6.90;94.60
66610;DHT22;53468;48.276;14.416;2023-11-19T21:58:56;7.00;94.70
66610;DHT22;53468;48.276;14.416;2023-11-19T22:10:48;7.30;96.60
66610;DHT22;53468;48.276;14.416;2023-11-19T22:23:09;8.40;98.00
66610;DHT22;53468;48.276;14.416;2023-11-19T22:58:39;9.20;94.80
66610;DHT22;53468;48.276;14.416;2023-11-19T23:04:01;9.40;93.40
66610;DHT22;53468;48.276;14.416;2023-11-19T23:10:16;9.50;93.50
66610;DHT22;53468;48.276;14.416;2023-11-19T23:16:39;9.40;93.40
66610;DHT22;53468;48.276;14.416;2023-11-19T23:27:59;9.40;93.30
66610;DHT22;53468;48.276;14.416;2023-11-19T23:39:53;9.30;93.50
66610;DHT22;53468;48.276;14.416;2023-11-19T23:45:56;9.30;93.50
